• Join FlightAware (Why Join?)
  • Login
  • US Flag 
03:02PM EDT


 

Airport Tracker/Info


-or-


 

Live Flight TrackerFlight Track Log ✈ C-GBCU ✈ 06-May-2013 ✈ KHAI - CYQS

Flight Track Log - Related Links

Times and Time Zones

All times are in EDT time to prevent confusion due to time zone crossing. See the C-GBCU flight status page for this flight to view local times or setup timezone preferences in your user account.

Time Position Orientation Groundspeed Altitude Reporting Facility
EDT Latitude Longitude Course Direction KTS MPH feet Rate Location/Type
09:30AM 42.0875 -85.6439 74° East 144 166 5,500  Level Chicago Center
09:31AM 42.1019 -85.5933 69° East 145 167 5,500  Level Chicago Center
09:33AM 42.1342 -85.4803 69° East 147 169 5,500 -60 Level Chicago Center
09:34AM 42.0933 -85.6870 74° East  Level FlightAware Approximate
09:34AM 42.1478 -85.4286 70° East 147 169 5,400  Level Chicago Center
09:35AM 42.1030 -85.6417 74° East  Level FlightAware Approximate
09:35AM 42.1631 -85.3775 68° East 147 169 5,400  Level Chicago Center
09:36AM 42.1769 -85.3256 70° East 147 169 5,500  Climbing Chicago Center
09:37AM 42.1919 -85.2739 69° East 147 169 5,400  Descending Chicago Center
09:38AM 42.2094 -85.2114 69° East 148 170 5,500  Climbing Chicago Center
09:39AM 42.2233 -85.1597 70° East 147 169 5,500 -60 Level Chicago Center
09:40AM 42.2375 -85.1075 70° East 148 170 5,400 -60 Descending Chicago Center
09:41AM 42.2522 -85.0547 69° East 149 171 5,400  Level Chicago Center
09:42AM 42.2672 -84.9981 70° East 150 173 5,400  Level Chicago Center
09:43AM 42.2819 -84.9450 69° East 151 174 5,400  Level Chicago Center
09:44AM 42.2961 -84.8928 70° East 149 171 5,400  Level Chicago Center
09:45AM 42.3111 -84.8403 69° East 149 171 5,400  Level Chicago Center
09:46AM 42.3281 -84.7764 70° East 151 174 5,400  Level Chicago Center
09:48AM 42.3305 -84.7115 87° East  Level FlightAware Approximate
09:50AM 42.3856 -84.5644 87° East 150 173 5,400  Level Chicago Center
09:52AM 42.3928 -84.5075 80° East  Level Estimated
09:53AM 42.4231 -84.4258 80° East 151 174 5,400  Level Cleveland Center
09:53AM 42.4281 -84.3981 76° East 151 174 5,400  Level Cleveland Center
09:54AM 42.4444 -84.3456 67° East 150 173 5,400  Level Cleveland Center
09:55AM 42.3441 -84.3273 87° East  Level FlightAware Approximate
09:56AM 42.3460 -84.2724 87° East  Level FlightAware Approximate
09:56AM 42.4208 -84.2964 123° Southeast  Level FlightAware Approximate
09:57AM 42.4733 -84.2317 123° Southeast 151 174 5,400  Level Cleveland Center
09:57AM 42.4850 -84.1900 69° East 151 174 5,400  Level Cleveland Center
09:58AM 42.4972 -84.1344 73° East 151 174 5,400  Level Cleveland Center
10:00AM 42.5178 -84.0764 64° Northeast 153 176 5,400  Level Cleveland Center
10:02AM 42.5222 -83.9671 87° East  Level FlightAware Approximate
10:04AM 42.5719 -83.8567 87° East 152 175 5,400  Level Cleveland Center
10:06AM 42.6022 -83.7483 69° East 152 175 5,400  Level Cleveland Center
10:07AM 42.6142 -83.6925 74° East 152 175 5,400  Level Cleveland Center
10:08AM 42.6300 -83.6453 65° Northeast 151 174 5,400  Level Cleveland Center
10:09AM 42.5369 -83.5815 87° East  Level FlightAware Approximate
10:09AM 42.6442 -83.5839 73° East 152 175 5,400  Level Cleveland Center
10:11AM 42.6742 -83.4694 70° East 150 173 5,400  Level Cleveland Center
10:12AM 42.6881 -83.4136 71° East 150 173 5,400  Level Cleveland Center
10:13AM 42.6997 -83.3661 72° East 150 173 5,400  Level Cleveland Center
10:15AM 42.7272 -83.2597 71° East 149 171 5,400  Level Cleveland Center
10:17AM 42.7002 -83.1687 112° Southeast  Level FlightAware Approximate
10:24AM 42.7164 -82.7766 85° East  Level Estimated
10:25AM 42.7151 -82.7206 92° East  Level FlightAware Approximate
10:25AM 42.7333 -82.6667 92° East 150 173 5,500  Level Toronto Center
10:26AM 42.7138 -82.6645 92° East  Level FlightAware Approximate
10:27AM 42.7124 -82.6084 92° East  Level FlightAware Approximate
10:27AM 42.7354 -82.5966 88° East  Level Estimated
10:27AM 42.7500 -82.5667 88° East 150 173 5,500  Level Toronto Center
10:28AM 42.7111 -82.5524 92° East  Level FlightAware Approximate
10:29AM 42.7097 -82.4963 92° East  Level FlightAware Approximate
10:29AM 42.7421 -82.4973 99° East  Level FlightAware Approximate
10:30AM 42.7083 -82.4403 92° East  Level FlightAware Approximate
10:30AM 42.7500 -82.4000 90° East 150 173 5,500  Level Toronto Center
10:31AM 42.7068 -82.3842 92° East  Level FlightAware Approximate
10:31AM 42.7500 -82.3333 90° East 140 161 5,500  Level Toronto Center
10:32AM 42.7500 -82.2833 90° East 140 161 5,500  Level Toronto Center
10:33AM 42.7500 -82.2500 90° East 150 173 5,500  Level Toronto Center
10:34AM 42.7500 -82.1833 90° East 140 161 5,500  Level Toronto Center
10:35AM 42.7500 -82.1333 90° East 140 161 5,500  Level Toronto Center
10:36AM 42.7517 -82.1047 90° East  Level Estimated
10:36AM 42.7500 -82.0833 90° East 140 161 5,500  Level Toronto Center
10:38AM 42.7161 -82.0183 66° East  Level FlightAware Approximate
10:40AM 42.7500 -81.8500 86° East 140 161 5,500  Level Toronto Center
10:43AM 42.7502 -81.7237 90° East  Level FlightAware Approximate
10:43AM 42.7500 -81.7000 90° East 140 161 5,500  Level Toronto Center
10:44AM 42.7500 -81.6500 90° East 140 161 5,500  Level Toronto Center
10:45AM 42.7366 -81.6267 86° East  Level FlightAware Approximate
10:46AM 42.7394 -81.5707 86° East  Level FlightAware Approximate
10:46AM 42.7501 -81.5798 90° East  Level FlightAware Approximate
10:46AM 42.7500 -81.5333 90° East 140 161 5,500  Level Toronto Center
10:47AM 42.7500 -81.5000 90° East 140 161 5,400 -120 Descending Toronto Center
10:49AM 42.7500 -81.4298 90° East  Level FlightAware Approximate
10:56AM 42.7700 -81.1108 85° East  Level Estimated
10:57AM 42.7700 -81.1108 85° East  Level Estimated
10:58AM 42.7700 -81.1108 85° East  Level Estimated
10:59AM 42.7700 -81.1108 85° East  Level Estimated
11:00AM 42.7700 -81.1108 85° East  Level Estimated
11:01AM 42.7700 -81.1108 85° East  Level Estimated
11:02AM 42.7700 -81.1108 85° East  Level Estimated
11:03AM 42.7700 -81.1108 85° East  Level Estimated
11:04AM 42.7700 -81.1108 85° East  Level Estimated
11:05AM 42.7700 -81.1108 85° East  Level Estimated
11:06AM 42.7700 -81.1108 85° East  Level Estimated
11:07AM 42.7700 -81.1108 85° East  Level Estimated
11:08AM 42.7700 -81.1108 85° East  Level Estimated
11:09AM 42.7700 -81.1108 85° East  Level Estimated
11:10AM 42.7700 -81.1108 85° East  Level Estimated
11:11AM 42.7700 -81.1108 85° East  Level Estimated
11:12AM 42.7700 -81.1108 85° East  Level Estimated
11:13AM 42.7700 -81.1108 85° East  Level Estimated
11:14AM 42.7700 -81.1108 85° East  Level Estimated
11:15AM 42.7700 -81.1108 85° East  Level Estimated